createdAt,value
2022-10-07T00:00:54.227Z,7.71
2022-10-07T00:01:54.126Z,7.72
2022-10-07T00:02:54.095Z,7.72
2022-10-07T00:03:54.079Z,7.71
2022-10-07T00:04:54.111Z,7.71
2022-10-07T00:05:54.054Z,7.67
2022-10-07T00:06:54.053Z,7.66
2022-10-07T00:07:54.048Z,7.66
2022-10-07T00:08:54.020Z,7.66
2022-10-07T00:09:54.004Z,7.63
2022-10-07T00:10:54.012Z,7.62
2022-10-07T00:11:54.013Z,7.63
2022-10-07T00:12:53.979Z,7.63
2022-10-07T00:13:53.967Z,7.60
2022-10-07T00:14:53.953Z,7.56
2022-10-07T00:15:53.958Z,7.53
2022-10-07T00:16:54.060Z,7.52
2022-10-07T00:17:53.944Z,7.50
2022-10-07T00:18:53.914Z,7.49
2022-10-07T00:19:53.896Z,7.45
2022-10-07T00:20:53.886Z,7.45
2022-10-07T00:21:53.897Z,7.44
2022-10-07T00:22:53.867Z,7.40
2022-10-07T00:23:53.854Z,7.37
2022-10-07T00:24:53.846Z,7.34
2022-10-07T00:25:53.834Z,7.34
2022-10-07T00:26:53.832Z,7.31
2022-10-07T00:27:53.810Z,7.32
2022-10-07T00:28:53.798Z,7.34
2022-10-07T00:29:53.790Z,7.31
2022-10-07T00:30:53.839Z,7.32
2022-10-07T00:31:57.219Z,7.32
2022-10-07T00:32:53.757Z,7.29
2022-10-07T00:33:53.758Z,7.27
2022-10-07T00:34:53.737Z,7.26
2022-10-07T00:35:53.732Z,7.26
2022-10-07T00:36:53.715Z,7.26
2022-10-07T00:37:53.739Z,7.26
2022-10-07T00:38:53.706Z,7.27
2022-10-07T00:39:53.691Z,7.24
2022-10-07T00:40:53.673Z,7.29
2022-10-07T00:41:53.671Z,7.27
2022-10-07T00:42:53.654Z,7.24
2022-10-07T00:43:53.657Z,7.23
2022-10-07T00:44:53.633Z,7.23
2022-10-07T00:45:54.648Z,7.22
2022-10-07T00:46:53.656Z,7.23
2022-10-07T00:47:53.603Z,7.23
2022-10-07T00:48:53.582Z,7.22
2022-10-07T00:49:53.574Z,7.19
2022-10-07T00:50:53.579Z,7.17
2022-10-07T00:51:53.558Z,7.17
2022-10-07T00:52:53.548Z,7.17
2022-10-07T00:53:53.535Z,7.16
2022-10-07T00:54:53.518Z,7.16
2022-10-07T00:55:53.528Z,7.15
2022-10-07T00:56:53.496Z,7.13
2022-10-07T00:57:53.506Z,7.12
2022-10-07T00:58:53.470Z,7.13
2022-10-07T00:59:53.465Z,7.13
2022-10-07T01:00:53.493Z,7.13
2022-10-07T01:01:53.438Z,7.13
2022-10-07T01:02:53.536Z,7.13
2022-10-07T01:03:53.428Z,7.15
2022-10-07T01:04:53.428Z,7.13
2022-10-07T01:05:53.426Z,7.13
2022-10-07T01:06:53.396Z,7.12
2022-10-07T01:07:58.289Z,7.12
2022-10-07T01:08:54.368Z,7.12
2022-10-07T01:09:53.359Z,7.07
2022-10-07T01:10:54.303Z,7.07
2022-10-07T01:11:53.340Z,7.05
2022-10-07T01:12:53.329Z,7.04
2022-10-07T01:13:53.316Z,7.02
2022-10-07T01:14:53.308Z,7.02
2022-10-07T01:15:53.293Z,6.99
2022-10-07T01:16:53.359Z,6.97
2022-10-07T01:17:53.299Z,6.94
2022-10-07T01:18:53.253Z,6.95
2022-10-07T01:19:53.252Z,6.94
2022-10-07T01:20:53.244Z,6.94
2022-10-07T01:21:53.226Z,6.90
2022-10-07T01:22:53.210Z,6.91
2022-10-07T01:23:53.207Z,6.87
2022-10-07T01:24:53.204Z,6.86
2022-10-07T01:25:53.192Z,6.83
2022-10-07T01:26:53.175Z,6.80
2022-10-07T01:27:53.175Z,6.80
2022-10-07T01:28:53.167Z,6.79
2022-10-07T01:29:53.139Z,6.79
2022-10-07T01:30:53.216Z,6.80
2022-10-07T01:31:53.138Z,6.79
2022-10-07T01:32:53.124Z,6.81
2022-10-07T01:33:53.098Z,6.83
2022-10-07T01:34:53.102Z,6.86
2022-10-07T01:35:53.076Z,6.86
2022-10-07T01:36:53.080Z,6.86
2022-10-07T01:37:53.062Z,6.87
2022-10-07T01:38:53.044Z,6.87
2022-10-07T01:39:53.029Z,6.89
2022-10-07T01:40:53.014Z,6.87
2022-10-07T01:41:53.035Z,6.89
2022-10-07T01:42:52.990Z,6.87
2022-10-07T01:43:52.987Z,6.84
2022-10-07T01:44:52.999Z,6.84
2022-10-07T01:45:53.000Z,6.84
2022-10-07T01:46:52.946Z,6.84
2022-10-07T01:47:52.957Z,6.86
2022-10-07T01:48:52.922Z,6.84
2022-10-07T01:49:52.912Z,6.83
2022-10-07T01:50:52.912Z,6.83
2022-10-07T01:51:52.899Z,6.81
2022-10-07T01:52:52.906Z,6.81
2022-10-07T01:53:52.883Z,6.81
2022-10-07T01:54:52.868Z,6.80
2022-10-07T01:55:52.864Z,6.80
2022-10-07T01:56:52.850Z,6.81
2022-10-07T01:57:52.855Z,6.81
2022-10-07T01:58:52.814Z,6.80
2022-10-07T01:59:52.813Z,6.80
2022-10-07T02:00:52.821Z,6.80
2022-10-07T02:01:52.911Z,6.77
2022-10-07T02:02:52.784Z,6.73
2022-10-07T02:03:52.845Z,6.73
2022-10-07T02:04:52.746Z,6.73
2022-10-07T02:05:52.763Z,6.69
2022-10-07T02:06:52.734Z,6.69
2022-10-07T02:07:52.727Z,6.71
2022-10-07T02:08:52.706Z,6.71
2022-10-07T02:09:52.698Z,6.69
2022-10-07T02:10:52.697Z,6.68
2022-10-07T02:11:52.683Z,6.68
2022-10-07T02:12:52.678Z,6.66
2022-10-07T02:13:52.661Z,6.63
2022-10-07T02:14:52.639Z,6.65
2022-10-07T02:15:52.743Z,6.62
2022-10-07T02:16:52.632Z,6.59
2022-10-07T02:17:52.618Z,6.58
2022-10-07T02:18:52.598Z,6.59
2022-10-07T02:19:52.596Z,6.59
2022-10-07T02:20:52.591Z,6.58
2022-10-07T02:21:52.591Z,6.58
2022-10-07T02:22:52.559Z,6.58
2022-10-07T02:23:52.542Z,6.54
2022-10-07T02:24:52.532Z,6.56
2022-10-07T02:25:53.487Z,6.54
2022-10-07T02:26:53.486Z,6.58
2022-10-07T02:27:53.955Z,6.59
2022-10-07T02:28:52.526Z,6.59
2022-10-07T02:29:52.492Z,6.58
2022-10-07T02:30:52.535Z,6.59
2022-10-07T02:31:53.439Z,6.59
2022-10-07T02:32:52.453Z,6.62
2022-10-07T02:33:52.468Z,6.59
2022-10-07T02:34:52.431Z,6.59
2022-10-07T02:35:52.424Z,6.61
2022-10-07T02:36:52.404Z,6.58
2022-10-07T02:37:52.415Z,6.54
2022-10-07T02:38:52.402Z,6.56
2022-10-07T02:39:52.378Z,6.56
2022-10-07T02:40:52.399Z,6.56
2022-10-07T02:41:52.367Z,6.58
2022-10-07T02:42:52.336Z,6.59
2022-10-07T02:43:52.351Z,6.59
2022-10-07T02:44:52.307Z,6.58
2022-10-07T02:45:52.309Z,6.58
2022-10-07T02:46:52.297Z,6.61
2022-10-07T02:47:52.312Z,6.59
2022-10-07T02:48:52.286Z,6.58
2022-10-07T02:49:52.258Z,6.56
2022-10-07T02:50:52.248Z,6.58
2022-10-07T02:51:52.246Z,6.53
2022-10-07T02:52:52.229Z,6.51
2022-10-07T02:53:52.229Z,6.50
2022-10-07T02:54:52.219Z,6.47
2022-10-07T02:55:52.205Z,6.46
2022-10-07T02:56:52.203Z,6.44
2022-10-07T02:57:52.180Z,6.43
2022-10-07T02:58:52.187Z,6.44
2022-10-07T02:59:52.172Z,6.41
2022-10-07T03:00:52.186Z,6.40
2022-10-07T03:01:52.186Z,6.40
2022-10-07T03:02:52.118Z,6.38
2022-10-07T03:03:52.214Z,6.38
2022-10-07T03:04:52.102Z,6.40
2022-10-07T03:05:52.090Z,6.38
2022-10-07T03:06:52.078Z,6.40
2022-10-07T03:07:52.067Z,6.41
2022-10-07T03:08:52.054Z,6.43
2022-10-07T03:09:52.045Z,6.40
2022-10-07T03:10:52.044Z,6.40
2022-10-07T03:11:52.025Z,6.40
2022-10-07T03:12:52.017Z,6.40
2022-10-07T03:13:52.025Z,6.38
2022-10-07T03:14:51.994Z,6.38
2022-10-07T03:15:53.045Z,6.35
2022-10-07T03:16:51.977Z,6.36
2022-10-07T03:17:51.962Z,6.33
2022-10-07T03:18:51.978Z,6.33
2022-10-07T03:19:51.936Z,6.33
2022-10-07T03:20:51.927Z,6.35
2022-10-07T03:21:51.940Z,6.36
2022-10-07T03:22:51.897Z,6.38
2022-10-07T03:23:51.908Z,6.35
2022-10-07T03:24:51.879Z,6.33
2022-10-07T03:25:51.888Z,6.33
2022-10-07T03:26:51.858Z,6.33
2022-10-07T03:27:51.867Z,6.32
2022-10-07T03:28:51.841Z,6.30
2022-10-07T03:29:51.826Z,6.30
2022-10-07T03:30:51.862Z,6.32
2022-10-07T03:31:51.798Z,6.32
2022-10-07T03:32:51.812Z,6.30
2022-10-07T03:33:51.789Z,6.33
2022-10-07T03:34:51.770Z,6.32
2022-10-07T03:35:51.761Z,6.28
2022-10-07T03:36:51.769Z,6.28
2022-10-07T03:37:51.750Z,6.26
2022-10-07T03:38:51.730Z,6.28
2022-10-07T03:39:51.711Z,6.26
2022-10-07T03:40:51.706Z,6.25
2022-10-07T03:41:51.703Z,6.22
2022-10-07T03:42:51.690Z,6.22
2022-10-07T03:43:51.685Z,6.22
2022-10-07T03:44:51.744Z,6.25
2022-10-07T03:45:51.652Z,6.25
2022-10-07T03:46:51.743Z,6.25
2022-10-07T03:47:51.652Z,6.26
2022-10-07T03:48:51.645Z,6.25
2022-10-07T03:49:51.615Z,6.25
2022-10-07T03:50:51.604Z,6.22
2022-10-07T03:51:51.573Z,6.22
2022-10-07T03:52:51.586Z,6.21
2022-10-07T03:53:51.564Z,6.21
2022-10-07T03:54:51.583Z,6.22
2022-10-07T03:55:51.551Z,6.21
2022-10-07T03:56:51.528Z,6.21
2022-10-07T03:57:55.472Z,6.19
2022-10-07T03:58:52.555Z,6.18
2022-10-07T03:59:51.507Z,6.14
2022-10-07T04:00:51.492Z,6.13
2022-10-07T04:01:51.528Z,6.13
2022-10-07T04:02:51.508Z,6.11
2022-10-07T04:03:51.453Z,6.10
2022-10-07T04:04:51.467Z,6.10
2022-10-07T04:05:52.383Z,6.10
2022-10-07T04:06:52.372Z,6.10
2022-10-07T04:07:51.411Z,6.10
2022-10-07T04:08:51.425Z,6.11
2022-10-07T04:09:51.390Z,6.10
2022-10-07T04:10:51.400Z,6.09
2022-10-07T04:11:51.369Z,6.10
2022-10-07T04:12:51.364Z,6.10
2022-10-07T04:13:51.391Z,6.10
2022-10-07T04:14:51.337Z,6.10
2022-10-07T04:15:51.393Z,6.09
2022-10-07T04:16:51.330Z,6.09
2022-10-07T04:17:51.290Z,6.10
2022-10-07T04:18:51.312Z,6.07
2022-10-07T04:19:51.284Z,6.06
2022-10-07T04:20:51.275Z,6.03
2022-10-07T04:21:51.272Z,6.03
2022-10-07T04:22:51.253Z,6.00
2022-10-07T04:23:51.231Z,6.03
2022-10-07T04:24:51.245Z,6.01
2022-10-07T04:25:51.213Z,6.00
2022-10-07T04:26:51.205Z,5.96
2022-10-07T04:27:52.184Z,5.98
2022-10-07T04:28:51.230Z,5.95
2022-10-07T04:29:51.178Z,5.96
2022-10-07T04:30:51.170Z,5.96
2022-10-07T04:31:51.191Z,5.95
2022-10-07T04:32:51.142Z,5.95
2022-10-07T04:33:51.123Z,5.95
2022-10-07T04:34:51.129Z,5.95
2022-10-07T04:35:51.125Z,5.93
2022-10-07T04:36:51.095Z,5.93
2022-10-07T04:37:51.089Z,5.91
2022-10-07T04:38:51.075Z,5.92
2022-10-07T04:40:00.811Z,5.93
2022-10-07T04:40:52.056Z,5.95
2022-10-07T04:41:51.035Z,5.92
2022-10-07T04:42:51.028Z,5.91
2022-10-07T04:43:55.269Z,5.88
2022-10-07T04:44:52.133Z,5.89
2022-10-07T04:45:51.002Z,5.86
2022-10-07T04:46:51.021Z,5.86
2022-10-07T04:47:50.960Z,5.88
2022-10-07T04:48:50.976Z,5.85
2022-10-07T04:49:50.976Z,5.85
2022-10-07T04:50:50.942Z,5.86
2022-10-07T04:51:50.942Z,5.85
2022-10-07T04:52:50.918Z,5.83
2022-10-07T04:53:55.678Z,5.82
2022-10-07T04:54:51.909Z,5.82
2022-10-07T04:55:50.879Z,5.81
2022-10-07T04:56:50.891Z,5.81
2022-10-07T04:57:50.860Z,5.81
2022-10-07T04:58:50.863Z,5.81
2022-10-07T04:59:50.858Z,5.81
2022-10-07T05:00:50.957Z,5.78
2022-10-07T05:01:50.885Z,5.75
2022-10-07T05:02:50.812Z,5.74
2022-10-07T05:03:50.797Z,5.75
2022-10-07T05:04:50.804Z,5.73
2022-10-07T05:05:50.780Z,5.71
2022-10-07T05:06:50.784Z,5.68
2022-10-07T05:07:50.754Z,5.68
2022-10-07T05:08:50.736Z,5.70
2022-10-07T05:09:50.736Z,5.68
2022-10-07T05:10:50.720Z,5.70
2022-10-07T05:11:50.727Z,5.70
2022-10-07T05:12:55.712Z,5.70
2022-10-07T05:13:51.691Z,5.70
2022-10-07T05:14:50.766Z,5.70
2022-10-07T05:15:50.709Z,5.67
2022-10-07T05:16:50.659Z,5.67
2022-10-07T05:17:50.665Z,5.68
2022-10-07T05:18:50.638Z,5.67
2022-10-07T05:19:50.616Z,5.70
2022-10-07T05:20:50.617Z,5.67
2022-10-07T05:21:50.605Z,5.67
2022-10-07T05:22:51.237Z,5.67
2022-10-07T05:23:50.595Z,5.67
2022-10-07T05:24:50.577Z,5.66
2022-10-07T05:25:50.558Z,5.66
2022-10-07T05:26:50.562Z,5.64
2022-10-07T05:27:50.532Z,5.64
2022-10-07T05:28:50.608Z,5.64
2022-10-07T05:29:50.511Z,5.67
2022-10-07T05:30:50.501Z,5.71
2022-10-07T05:31:50.577Z,5.71
2022-10-07T05:32:50.572Z,5.70
2022-10-07T05:33:50.483Z,5.71
2022-10-07T05:34:50.470Z,5.68
2022-10-07T05:35:50.471Z,5.70
2022-10-07T05:36:50.446Z,5.71
2022-10-07T05:37:51.468Z,5.73
2022-10-07T05:38:50.412Z,5.73
2022-10-07T05:39:50.399Z,5.73
2022-10-07T05:40:50.395Z,5.73
2022-10-07T05:41:50.392Z,5.73
2022-10-07T05:42:50.371Z,5.70
2022-10-07T05:43:50.361Z,5.68
2022-10-07T05:44:50.350Z,5.68
2022-10-07T05:45:50.386Z,5.71
2022-10-07T05:46:50.348Z,5.73
2022-10-07T05:47:50.310Z,5.73
2022-10-07T05:48:50.313Z,5.74
2022-10-07T05:49:50.291Z,5.73
2022-10-07T05:50:50.313Z,5.73
2022-10-07T05:51:50.272Z,5.74
2022-10-07T05:52:50.264Z,5.77
2022-10-07T05:53:50.265Z,5.78
2022-10-07T05:54:50.235Z,5.78
2022-10-07T05:55:50.217Z,5.77
2022-10-07T05:56:50.212Z,5.77
2022-10-07T05:57:50.210Z,5.78
2022-10-07T05:58:50.236Z,5.78
2022-10-07T05:59:50.184Z,5.77
2022-10-07T06:00:50.197Z,5.78
2022-10-07T06:01:50.246Z,5.83
2022-10-07T06:02:50.346Z,5.85
2022-10-07T06:03:50.136Z,5.88
2022-10-07T06:04:50.206Z,5.89
2022-10-07T06:05:50.126Z,5.92
2022-10-07T06:06:50.141Z,5.92
2022-10-07T06:07:50.109Z,5.95
2022-10-07T06:08:50.104Z,5.93
2022-10-07T06:09:50.088Z,5.92
2022-10-07T06:10:50.065Z,5.95
2022-10-07T06:11:50.059Z,5.95
2022-10-07T06:12:50.069Z,6.00
2022-10-07T06:13:50.040Z,6.01
2022-10-07T06:14:50.026Z,6.03
2022-10-07T06:15:50.021Z,6.06
2022-10-07T06:16:50.190Z,6.09
2022-10-07T06:17:50.011Z,6.13
2022-10-07T06:18:49.996Z,6.14
2022-10-07T06:19:49.978Z,6.18
2022-10-07T06:20:49.962Z,6.22
2022-10-07T06:21:49.941Z,6.26
2022-10-07T06:22:49.957Z,6.29
2022-10-07T06:23:49.926Z,6.32
2022-10-07T06:24:49.913Z,6.33
2022-10-07T06:25:49.895Z,6.36
2022-10-07T06:26:49.914Z,6.40
2022-10-07T06:27:54.218Z,6.41
2022-10-07T06:28:49.902Z,6.44
2022-10-07T06:29:49.875Z,6.44
2022-10-07T06:30:49.914Z,6.48
2022-10-07T06:31:49.835Z,6.50
2022-10-07T06:32:49.845Z,6.50
2022-10-07T06:33:49.825Z,6.53
2022-10-07T06:34:49.843Z,6.56
2022-10-07T06:35:49.791Z,6.61
2022-10-07T06:36:49.783Z,6.62
2022-10-07T06:37:49.764Z,6.68
2022-10-07T06:38:49.776Z,6.72
2022-10-07T06:39:49.747Z,6.77
2022-10-07T06:40:49.740Z,6.76
2022-10-07T06:41:49.739Z,6.80
2022-10-07T06:42:49.716Z,6.81
2022-10-07T06:43:49.716Z,6.87
2022-10-07T06:44:49.687Z,6.91
2022-10-07T06:45:49.706Z,6.94
2022-10-07T06:46:49.687Z,6.98
2022-10-07T06:47:49.662Z,6.99
2022-10-07T06:48:49.662Z,7.05
2022-10-07T06:49:49.638Z,7.07
2022-10-07T06:50:49.627Z,7.08
2022-10-07T06:51:49.623Z,7.13
2022-10-07T06:52:49.609Z,7.19
2022-10-07T06:53:49.604Z,7.24
2022-10-07T06:54:50.549Z,7.26
2022-10-07T06:55:49.564Z,7.31
2022-10-07T06:56:49.571Z,7.34
2022-10-07T06:57:49.548Z,7.37
2022-10-07T06:58:49.554Z,7.40
2022-10-07T06:59:49.558Z,7.40
2022-10-07T07:00:49.592Z,7.42
2022-10-07T07:01:49.506Z,7.44
2022-10-07T07:02:49.672Z,7.49
2022-10-07T07:03:49.487Z,7.53
2022-10-07T07:04:52.893Z,7.55
2022-10-07T07:05:50.932Z,7.58
2022-10-07T07:06:49.454Z,7.60
2022-10-07T07:07:49.863Z,7.62
2022-10-07T07:08:49.445Z,7.66
2022-10-07T07:09:49.415Z,7.69
2022-10-07T07:10:49.408Z,7.74
2022-10-07T07:11:52.898Z,7.75
2022-10-07T07:12:50.172Z,7.78
2022-10-07T07:13:49.376Z,7.84
2022-10-07T07:14:49.365Z,7.85
2022-10-07T07:15:49.392Z,7.89
2022-10-07T07:16:49.425Z,7.92
2022-10-07T07:17:49.481Z,7.96
2022-10-07T07:18:49.319Z,8.00
2022-10-07T07:19:49.306Z,8.04
2022-10-07T07:20:49.305Z,8.08
2022-10-07T07:21:51.272Z,8.11
2022-10-07T07:22:49.268Z,8.15
2022-10-07T07:23:49.273Z,8.21
2022-10-07T07:24:49.254Z,8.22
2022-10-07T07:25:49.239Z,8.28
2022-10-07T07:26:49.258Z,8.32
2022-10-07T07:27:53.817Z,8.33
2022-10-07T07:28:50.247Z,8.39
2022-10-07T07:29:49.193Z,8.44
2022-10-07T07:30:49.220Z,8.47
2022-10-07T07:31:49.175Z,8.51
2022-10-07T07:32:49.170Z,8.57
2022-10-07T07:33:49.170Z,8.62
2022-10-07T07:34:49.211Z,8.68
2022-10-07T07:35:49.147Z,8.75
2022-10-07T07:36:49.124Z,8.78
2022-10-07T07:37:49.117Z,8.83
2022-10-07T07:38:49.105Z,8.88
2022-10-07T07:39:49.084Z,8.93
2022-10-07T07:40:49.098Z,8.97
2022-10-07T07:41:49.085Z,9.01
2022-10-07T07:42:49.067Z,9.04
2022-10-07T07:43:49.044Z,9.06
2022-10-07T07:44:49.992Z,9.12
2022-10-07T07:45:49.050Z,9.12
2022-10-07T07:46:49.027Z,9.18
2022-10-07T07:47:48.995Z,9.16
2022-10-07T07:48:48.982Z,9.21
2022-10-07T07:49:48.993Z,9.23
2022-10-07T07:50:48.957Z,9.24
2022-10-07T07:51:48.949Z,9.27
2022-10-07T07:52:49.361Z,9.28
2022-10-07T07:53:48.938Z,9.31
2022-10-07T07:54:48.937Z,9.34
2022-10-07T07:55:48.915Z,9.38
2022-10-07T07:56:48.918Z,9.39
2022-10-07T07:57:48.944Z,9.40
2022-10-07T07:58:48.868Z,9.40
2022-10-07T07:59:48.875Z,9.45
2022-10-07T08:00:48.878Z,9.48
2022-10-07T08:01:48.858Z,9.48
2022-10-07T08:02:48.890Z,9.52
2022-10-07T08:03:48.833Z,9.56
2022-10-07T08:04:48.811Z,9.58
2022-10-07T08:05:48.811Z,9.63
2022-10-07T08:06:48.811Z,9.67
2022-10-07T08:07:49.019Z,9.67
2022-10-07T08:08:48.761Z,9.71
2022-10-07T08:09:48.763Z,9.75
2022-10-07T08:10:51.937Z,9.81
2022-10-07T08:11:48.736Z,9.85
2022-10-07T08:12:48.731Z,9.88
2022-10-07T08:13:48.725Z,9.91
2022-10-07T08:14:48.706Z,9.93
2022-10-07T08:15:48.710Z,9.94
2022-10-07T08:16:48.673Z,9.91
2022-10-07T08:17:48.795Z,9.96
2022-10-07T08:18:48.674Z,10.00
2022-10-07T08:19:48.667Z,10.00
2022-10-07T08:20:48.634Z,10.04
2022-10-07T08:21:48.630Z,10.07
2022-10-07T08:22:48.621Z,10.10
2022-10-07T08:23:48.607Z,10.17
2022-10-07T08:24:48.615Z,10.19
2022-10-07T08:25:48.585Z,10.24
2022-10-07T08:26:48.568Z,10.30
2022-10-07T08:27:48.760Z,10.36
2022-10-07T08:28:48.565Z,10.42
2022-10-07T08:29:48.562Z,10.46
2022-10-07T08:30:48.566Z,10.47
2022-10-07T08:31:48.545Z,10.52
2022-10-07T08:32:48.529Z,10.52
2022-10-07T08:33:48.522Z,10.53
2022-10-07T08:34:48.487Z,10.59
2022-10-07T08:35:48.466Z,10.60
2022-10-07T08:36:48.454Z,10.60
2022-10-07T08:37:48.827Z,10.62
2022-10-07T08:38:51.121Z,10.65
2022-10-07T08:39:48.420Z,10.68
2022-10-07T08:40:48.422Z,10.71
2022-10-07T08:41:48.460Z,10.71
2022-10-07T08:42:49.346Z,10.74
2022-10-07T08:43:48.400Z,10.74
2022-10-07T08:44:48.381Z,10.76
2022-10-07T08:45:48.362Z,10.80
2022-10-07T08:46:48.346Z,10.83
2022-10-07T08:47:48.597Z,10.78
2022-10-07T08:48:48.327Z,10.81
2022-10-07T08:49:48.315Z,10.84
2022-10-07T08:50:48.302Z,10.91
2022-10-07T08:51:48.325Z,10.96
2022-10-07T08:52:48.305Z,10.99
2022-10-07T08:53:48.275Z,11.03
2022-10-07T08:54:48.259Z,11.07
2022-10-07T08:55:48.256Z,11.09
2022-10-07T08:56:48.269Z,11.11
2022-10-07T08:57:48.430Z,11.11
2022-10-07T08:58:48.207Z,11.07
2022-10-07T08:59:48.262Z,11.10
2022-10-07T09:00:50.328Z,11.13
2022-10-07T09:01:48.238Z,11.13
2022-10-07T09:02:48.213Z,11.07
2022-10-07T09:03:48.183Z,11.11
2022-10-07T09:04:48.147Z,11.19
2022-10-07T09:05:48.137Z,11.21
2022-10-07T09:06:48.138Z,11.25
2022-10-07T09:07:48.511Z,11.25
2022-10-07T09:08:48.088Z,11.25
2022-10-07T09:09:48.105Z,11.31
2022-10-07T09:10:48.079Z,11.31
2022-10-07T09:11:48.089Z,11.35
2022-10-07T09:12:48.051Z,11.44
2022-10-07T09:13:48.066Z,11.49
2022-10-07T09:14:48.036Z,11.53
2022-10-07T09:15:48.076Z,11.57
2022-10-07T09:16:48.011Z,11.64
2022-10-07T09:17:48.237Z,11.68
2022-10-07T09:18:47.991Z,11.75
2022-10-07T09:19:47.985Z,11.78
2022-10-07T09:20:47.992Z,11.85
2022-10-07T09:21:47.962Z,11.86
2022-10-07T09:22:47.962Z,11.93
2022-10-07T09:23:47.965Z,11.97
2022-10-07T09:24:47.938Z,12.04
2022-10-07T09:25:47.914Z,12.04
2022-10-07T09:26:47.905Z,12.08
2022-10-07T09:27:48.265Z,12.11
2022-10-07T09:28:47.963Z,12.15
2022-10-07T09:29:47.875Z,12.20
2022-10-07T09:30:47.874Z,12.24
2022-10-07T09:31:47.882Z,12.27
2022-10-07T09:32:47.852Z,12.33
2022-10-07T09:33:47.849Z,12.39
2022-10-07T09:34:47.815Z,12.42
2022-10-07T09:35:47.806Z,12.48
2022-10-07T09:36:47.806Z,12.51
2022-10-07T09:37:48.336Z,12.52
2022-10-07T09:38:47.786Z,12.56
2022-10-07T09:39:47.775Z,12.60
2022-10-07T09:40:47.755Z,12.67
2022-10-07T09:41:47.740Z,12.71
2022-10-07T09:42:47.740Z,12.77
2022-10-07T09:43:47.730Z,12.84
2022-10-07T09:44:47.711Z,12.88
2022-10-07T09:45:47.698Z,12.96
2022-10-07T09:46:47.811Z,13.03
2022-10-07T09:47:48.413Z,13.09
2022-10-07T09:48:47.671Z,13.15
2022-10-07T09:49:47.661Z,13.21
2022-10-07T09:50:47.640Z,13.27
2022-10-07T09:51:47.663Z,13.32
2022-10-07T09:52:47.621Z,13.36
2022-10-07T09:53:47.634Z,13.40
2022-10-07T09:54:47.600Z,13.41
2022-10-07T09:55:48.539Z,13.44
2022-10-07T09:56:47.574Z,13.51
2022-10-07T09:57:47.828Z,13.55
2022-10-07T09:58:47.554Z,13.58
2022-10-07T09:59:47.546Z,13.61
2022-10-07T10:00:47.526Z,13.62
2022-10-07T10:01:47.553Z,13.63
2022-10-07T10:02:47.685Z,13.71
2022-10-07T10:03:47.559Z,13.76
2022-10-07T10:04:47.514Z,13.81
2022-10-07T10:05:47.517Z,13.87
2022-10-07T10:06:47.456Z,13.91
2022-10-07T10:07:47.684Z,13.96
2022-10-07T10:08:47.444Z,13.98
2022-10-07T10:09:47.432Z,14.01
2022-10-07T10:10:47.466Z,14.06
2022-10-07T10:11:47.469Z,14.10
2022-10-07T10:12:47.767Z,14.16
2022-10-07T10:13:47.405Z,14.17
2022-10-07T10:14:47.390Z,14.20
2022-10-07T10:15:47.414Z,14.24
2022-10-07T10:16:47.355Z,14.27
2022-10-07T10:17:47.355Z,14.31
2022-10-07T10:18:47.335Z,14.35
2022-10-07T10:19:47.317Z,14.37
2022-10-07T10:20:47.322Z,14.38
2022-10-07T10:21:47.301Z,14.39
2022-10-07T10:22:47.786Z,14.44
2022-10-07T10:23:47.276Z,14.46
2022-10-07T10:24:47.275Z,14.50
2022-10-07T10:25:47.259Z,14.52
2022-10-07T10:26:47.243Z,14.54
2022-10-07T10:27:47.243Z,14.60
2022-10-07T10:28:47.223Z,14.61
2022-10-07T10:29:47.222Z,14.62
2022-10-07T10:30:47.250Z,14.67
2022-10-07T10:31:47.215Z,14.72
2022-10-07T10:32:47.701Z,14.78
2022-10-07T10:33:47.167Z,14.78
2022-10-07T10:34:47.149Z,14.81
2022-10-07T10:35:47.176Z,14.83
2022-10-07T10:36:47.170Z,14.88
2022-10-07T10:37:47.138Z,14.90
2022-10-07T10:38:47.105Z,14.91
2022-10-07T10:39:47.123Z,14.94
2022-10-07T10:40:47.106Z,14.95
2022-10-07T10:41:47.082Z,15.02
2022-10-07T10:42:47.605Z,15.05
2022-10-07T10:43:47.054Z,15.11
2022-10-07T10:44:47.056Z,15.13
2022-10-07T10:45:47.047Z,15.13
2022-10-07T10:46:51.130Z,15.17
2022-10-07T10:47:48.015Z,15.21
2022-10-07T10:48:47.010Z,15.26
2022-10-07T10:49:47.009Z,15.31
2022-10-07T10:50:46.971Z,15.36
2022-10-07T10:51:46.976Z,15.42
2022-10-07T10:52:47.522Z,15.46
2022-10-07T10:53:46.944Z,15.49
2022-10-07T10:54:46.970Z,15.54
2022-10-07T10:55:46.931Z,15.59
2022-10-07T10:56:46.906Z,15.57
2022-10-07T10:57:46.956Z,15.56
2022-10-07T10:58:46.890Z,15.57
2022-10-07T10:59:46.887Z,15.59
2022-10-07T11:00:46.858Z,15.63
2022-10-07T11:01:46.894Z,15.67
2022-10-07T11:02:47.133Z,15.70
2022-10-07T11:03:46.847Z,15.75
2022-10-07T11:04:46.821Z,15.76
2022-10-07T11:05:46.823Z,15.81
2022-10-07T11:06:46.790Z,15.85
2022-10-07T11:07:46.817Z,15.89
2022-10-07T11:08:46.768Z,15.89
2022-10-07T11:09:46.770Z,15.92
2022-10-07T11:10:46.748Z,15.89
2022-10-07T11:11:46.738Z,15.94
2022-10-07T11:12:47.278Z,15.99
2022-10-07T11:13:46.722Z,16.04
2022-10-07T11:14:46.705Z,16.11
2022-10-07T11:15:46.773Z,16.12
2022-10-07T11:16:47.112Z,16.11
2022-10-07T11:17:46.686Z,16.06
2022-10-07T11:18:46.665Z,16.06
2022-10-07T11:19:46.665Z,16.07
2022-10-07T11:20:46.645Z,16.07
2022-10-07T11:21:46.637Z,16.07
2022-10-07T11:22:47.128Z,16.12
2022-10-07T11:23:46.635Z,16.14
2022-10-07T11:24:46.599Z,16.18
2022-10-07T11:25:46.593Z,16.23
2022-10-07T11:26:46.590Z,16.25
2022-10-07T11:27:46.612Z,16.31
2022-10-07T11:28:46.538Z,16.34
2022-10-07T11:29:46.558Z,16.33
2022-10-07T11:30:46.533Z,16.31
2022-10-07T11:31:46.657Z,16.27
2022-10-07T11:32:46.802Z,16.26
2022-10-07T11:33:46.500Z,16.26
2022-10-07T11:34:48.941Z,16.30
2022-10-07T11:35:47.490Z,16.30
2022-10-07T11:36:46.475Z,16.30
2022-10-07T11:37:46.460Z,16.30
2022-10-07T11:38:46.443Z,16.31
2022-10-07T11:39:46.432Z,16.33
2022-10-07T11:40:46.442Z,16.35
2022-10-07T11:41:46.425Z,16.40
2022-10-07T11:42:46.820Z,16.42
2022-10-07T11:43:46.404Z,16.42
2022-10-07T11:44:46.373Z,16.44
2022-10-07T11:45:46.372Z,16.44
2022-10-07T11:46:46.393Z,16.50
2022-10-07T11:47:46.354Z,16.52
2022-10-07T11:48:46.374Z,16.56
2022-10-07T11:49:46.329Z,16.56
2022-10-07T11:50:46.314Z,16.58
2022-10-07T11:51:46.316Z,16.62
2022-10-07T11:52:46.594Z,16.68
2022-10-07T11:53:46.283Z,16.73
2022-10-07T11:54:46.287Z,16.78
2022-10-07T11:55:46.463Z,16.83
2022-10-07T11:56:46.239Z,16.81
2022-10-07T11:57:46.236Z,16.83
2022-10-07T11:58:46.243Z,16.85
2022-10-07T11:59:46.223Z,16.85
2022-10-07T12:00:46.202Z,16.86
2022-10-07T12:01:46.223Z,16.85
2022-10-07T12:02:46.631Z,16.85
2022-10-07T12:03:46.187Z,16.81
2022-10-07T12:04:46.146Z,16.78
2022-10-07T12:05:46.131Z,16.78
2022-10-07T12:06:46.161Z,16.78
2022-10-07T12:07:46.120Z,16.78
2022-10-07T12:08:46.114Z,16.81
2022-10-07T12:09:46.134Z,16.83
2022-10-07T12:10:46.900Z,16.86
2022-10-07T12:11:46.080Z,16.86
2022-10-07T12:12:46.564Z,16.89
2022-10-07T12:13:46.073Z,16.93
2022-10-07T12:14:46.067Z,16.96
2022-10-07T12:15:46.042Z,16.96
2022-10-07T12:16:46.061Z,16.96
2022-10-07T12:17:46.025Z,16.96
2022-10-07T12:18:45.997Z,16.98
2022-10-07T12:19:45.996Z,16.95
2022-10-07T12:20:45.979Z,16.93
2022-10-07T12:21:45.976Z,16.93
2022-10-07T12:22:46.387Z,16.93
2022-10-07T12:23:46.902Z,16.93
2022-10-07T12:24:45.972Z,16.93
2022-10-07T12:25:45.935Z,16.96
2022-10-07T12:26:45.918Z,16.98
2022-10-07T12:27:45.932Z,16.98
2022-10-07T12:28:46.075Z,16.98
2022-10-07T12:29:45.873Z,16.99
2022-10-07T12:30:45.869Z,17.04
2022-10-07T12:31:45.897Z,17.11
2022-10-07T12:32:46.075Z,17.13
2022-10-07T12:33:45.851Z,17.15
2022-10-07T12:34:45.829Z,17.22
2022-10-07T12:35:48.777Z,17.25
2022-10-07T12:36:46.805Z,17.26
2022-10-07T12:37:45.798Z,17.30
2022-10-07T12:38:45.780Z,17.35
2022-10-07T12:39:45.867Z,17.40
2022-10-07T12:40:45.747Z,17.43
2022-10-07T12:41:45.760Z,17.47
2022-10-07T12:42:45.988Z,17.48
2022-10-07T12:43:45.718Z,17.48
2022-10-07T12:44:45.708Z,17.50
2022-10-07T12:45:45.768Z,17.53
2022-10-07T12:46:45.853Z,17.53
2022-10-07T12:47:45.664Z,17.53
2022-10-07T12:48:45.664Z,17.51
2022-10-07T12:49:45.648Z,17.53
2022-10-07T12:50:45.672Z,17.54
2022-10-07T12:51:45.635Z,17.54
2022-10-07T12:52:45.950Z,17.55
2022-10-07T12:53:45.608Z,17.57
2022-10-07T12:54:45.583Z,17.55
2022-10-07T12:55:45.634Z,17.57
2022-10-07T12:56:46.546Z,17.55
2022-10-07T12:57:45.557Z,17.54
2022-10-07T12:58:45.560Z,17.55
2022-10-07T12:59:45.532Z,17.54
2022-10-07T13:00:45.635Z,17.51
2022-10-07T13:01:45.613Z,17.53
2022-10-07T13:02:45.784Z,17.54
2022-10-07T13:03:45.484Z,17.53
2022-10-07T13:04:45.480Z,17.53
2022-10-07T13:05:46.455Z,17.55
2022-10-07T13:06:45.461Z,17.59
2022-10-07T13:07:45.474Z,17.62
2022-10-07T13:08:45.439Z,17.59